createdAt,value
2019-04-25T00:01:44.781Z,17.60
2019-04-25T00:04:12.791Z,17.60
2019-04-25T00:06:41.133Z,17.60
2019-04-25T00:09:13.796Z,17.60
2019-04-25T00:11:43.656Z,17.60
2019-04-25T00:14:13.337Z,17.60
2019-04-25T00:16:44.053Z,17.50
2019-04-25T00:19:12.298Z,17.50
2019-04-25T00:22:05.282Z,17.50
2019-04-25T00:24:42.560Z,17.50
2019-04-25T00:27:11.782Z,17.50
2019-04-25T00:29:46.815Z,17.40
2019-04-25T00:32:15.055Z,17.50
2019-04-25T00:34:44.240Z,17.40
2019-04-25T00:37:14.003Z,17.40
2019-04-25T00:39:44.413Z,17.40
2019-04-25T00:42:12.224Z,17.40
2019-04-25T00:44:43.507Z,17.40
2019-04-25T00:47:11.613Z,17.30
2019-04-25T00:49:39.288Z,17.30
2019-04-25T00:52:07.816Z,17.10
2019-04-25T00:54:36.020Z,17.20
2019-04-25T00:57:03.947Z,17.20
2019-04-25T00:59:41.844Z,17.20
2019-04-25T01:02:31.307Z,17.20
2019-04-25T01:04:58.971Z,17.20
2019-04-25T01:07:26.631Z,17.20
2019-04-25T01:09:54.613Z,17.20
2019-04-25T01:12:22.337Z,17.20
2019-04-25T01:14:50.898Z,17.20
2019-04-25T01:17:19.542Z,17.20
2019-04-25T01:19:47.188Z,17.10
2019-04-25T01:22:16.105Z,17.20
2019-04-25T01:24:45.668Z,17.10
2019-04-25T01:27:13.690Z,17.10
2019-04-25T01:29:41.610Z,17.10
2019-04-25T01:32:13.882Z,17.10
2019-04-25T01:35:04.332Z,17.10
2019-04-25T01:37:53.965Z,17.10
2019-04-25T01:40:39.973Z,17.00
2019-04-25T01:43:35.274Z,17.00
2019-04-25T01:46:03.435Z,17.00
2019-04-25T01:48:31.370Z,17.00
2019-04-25T01:50:59.551Z,17.00
2019-04-25T01:53:28.064Z,17.00
2019-04-25T01:56:02.365Z,17.00
2019-04-25T01:58:25.273Z,17.00
2019-04-25T02:00:55.109Z,16.90
2019-04-25T02:03:26.981Z,16.90
2019-04-25T02:05:55.206Z,16.90
2019-04-25T02:08:23.894Z,16.90
2019-04-25T02:10:59.747Z,16.90
2019-04-25T02:13:27.616Z,16.90
2019-04-25T02:15:57.170Z,16.80
2019-04-25T02:18:25.301Z,16.80
2019-04-25T02:20:54.897Z,16.90
2019-04-25T02:23:24.058Z,16.80
2019-04-25T02:26:06.787Z,16.80
2019-04-25T02:28:23.704Z,16.80
2019-04-25T02:30:53.649Z,16.80
2019-04-25T02:33:21.425Z,16.80
2019-04-25T02:35:49.049Z,16.80
2019-04-25T02:38:17.459Z,16.80
2019-04-25T02:40:45.610Z,16.80
2019-04-25T02:43:14.384Z,16.80
2019-04-25T02:46:07.615Z,16.80
2019-04-25T02:48:52.339Z,16.70
2019-04-25T02:51:28.701Z,16.70
2019-04-25T02:53:57.790Z,16.70
2019-04-25T02:56:31.247Z,16.70
2019-04-25T02:58:56.469Z,16.70
2019-04-25T03:01:26.252Z,16.60
2019-04-25T03:03:54.651Z,16.70
2019-04-25T03:06:24.707Z,16.60
2019-04-25T03:08:54.257Z,16.60
2019-04-25T03:11:24.295Z,16.60
2019-04-25T03:13:51.279Z,16.60
2019-04-25T03:16:20.368Z,16.60
2019-04-25T03:19:09.267Z,16.60
2019-04-25T03:21:37.773Z,16.60
2019-04-25T03:24:11.392Z,16.60
2019-04-25T03:26:40.345Z,16.60
2019-04-25T03:29:05.960Z,16.50
2019-04-25T03:31:34.898Z,16.50
2019-04-25T03:34:07.936Z,16.50
2019-04-25T03:36:33.768Z,16.60
2019-04-25T03:39:02.175Z,16.50
2019-04-25T03:41:30.202Z,16.50
2019-04-25T03:43:59.551Z,16.50
2019-04-25T03:46:27.512Z,16.50
2019-04-25T03:48:55.412Z,16.50
2019-04-25T03:51:24.908Z,16.40
2019-04-25T03:53:53.552Z,16.40
2019-04-25T03:56:21.867Z,16.40
2019-04-25T03:58:50.241Z,16.40
2019-04-25T04:01:18.318Z,16.40
2019-04-25T04:03:49.417Z,16.40
2019-04-25T04:06:17.469Z,16.40
2019-04-25T04:08:45.002Z,16.40
2019-04-25T04:11:14.547Z,16.40
2019-04-25T04:13:43.966Z,16.40
2019-04-25T04:16:15.752Z,16.40
2019-04-25T04:18:45.477Z,16.30
2019-04-25T04:21:29.732Z,16.40
2019-04-25T04:24:10.495Z,16.30
2019-04-25T04:26:38.293Z,16.30
2019-04-25T04:29:07.739Z,16.40
2019-04-25T04:31:35.948Z,16.40
2019-04-25T04:34:03.883Z,16.30
2019-04-25T04:36:33.742Z,16.30
2019-04-25T04:39:01.544Z,16.30
2019-04-25T04:41:30.048Z,16.30
2019-04-25T04:43:58.302Z,16.30
2019-04-25T04:46:26.110Z,16.30
2019-04-25T04:48:55.358Z,16.30
2019-04-25T04:51:23.466Z,16.30
2019-04-25T04:53:51.373Z,16.30
2019-04-25T04:56:19.707Z,16.30
2019-04-25T04:58:48.198Z,16.30
2019-04-25T05:01:18.599Z,16.30
2019-04-25T05:03:53.952Z,16.30
2019-04-25T05:06:40.064Z,16.30
2019-04-25T05:09:15.194Z,16.30
2019-04-25T05:11:42.228Z,16.30
2019-04-25T05:14:11.725Z,16.30
2019-04-25T05:16:40.235Z,16.30
2019-04-25T05:19:08.215Z,16.30
2019-04-25T05:21:37.198Z,16.30
2019-04-25T05:24:06.711Z,16.30
2019-04-25T05:26:35.655Z,16.40
2019-04-25T05:29:03.901Z,16.40
2019-04-25T05:31:39.138Z,16.30
2019-04-25T05:34:07.600Z,16.40
2019-04-25T05:36:38.470Z,16.40
2019-04-25T05:39:09.591Z,16.30
2019-04-25T05:42:01.630Z,16.40
2019-04-25T05:44:29.404Z,16.40
2019-04-25T05:46:57.304Z,16.40
2019-04-25T05:49:26.859Z,16.40
2019-04-25T05:51:55.115Z,16.40
2019-04-25T05:54:24.515Z,16.40
2019-04-25T05:56:53.744Z,16.50
2019-04-25T05:59:24.853Z,16.40
2019-04-25T06:01:53.820Z,16.50
2019-04-25T06:04:23.837Z,16.40
2019-04-25T06:06:53.056Z,16.50
2019-04-25T06:09:41.213Z,16.50
2019-04-25T06:12:20.156Z,16.50
2019-04-25T06:14:48.548Z,16.50
2019-04-25T06:17:21.530Z,16.50
2019-04-25T06:19:53.297Z,16.50
2019-04-25T06:22:26.833Z,16.50
2019-04-25T06:24:59.364Z,16.50
2019-04-25T06:27:37.636Z,16.50
2019-04-25T06:30:25.016Z,16.50
2019-04-25T06:32:54.287Z,16.50
2019-04-25T06:35:31.570Z,16.50
2019-04-25T06:37:59.717Z,16.60
2019-04-25T06:40:29.756Z,16.60
2019-04-25T06:42:57.617Z,16.60
2019-04-25T06:45:57.929Z,16.60
2019-04-25T06:48:54.406Z,16.60
2019-04-25T06:51:44.034Z,16.70
2019-04-25T06:54:13.576Z,16.70
2019-04-25T06:56:41.437Z,16.70
2019-04-25T06:59:09.683Z,16.80
2019-04-25T07:01:37.430Z,16.80
2019-04-25T07:04:05.866Z,16.80
2019-04-25T07:06:35.779Z,16.80
2019-04-25T07:09:06.070Z,16.90
2019-04-25T07:11:35.834Z,16.90
2019-04-25T07:14:04.246Z,16.90
2019-04-25T07:16:33.764Z,16.90
2019-04-25T07:19:02.262Z,16.90
2019-04-25T07:21:35.561Z,17.00
2019-04-25T07:24:04.475Z,17.00
2019-04-25T07:27:07.549Z,17.00
2019-04-25T07:29:56.302Z,17.00
2019-04-25T07:32:34.867Z,17.10
2019-04-25T07:35:03.910Z,17.10
2019-04-25T07:37:31.596Z,17.10
2019-04-25T07:39:59.441Z,17.10
2019-04-25T07:42:27.682Z,17.10
2019-04-25T07:44:55.590Z,17.20
2019-04-25T07:47:24.254Z,17.20
2019-04-25T07:49:54.770Z,16.90
2019-04-25T07:52:23.596Z,17.20
2019-04-25T07:54:51.755Z,17.20
2019-04-25T07:57:19.936Z,17.20
2019-04-25T07:59:51.538Z,17.20
2019-04-25T08:02:18.654Z,17.20
2019-04-25T08:04:47.313Z,17.30
2019-04-25T08:07:15.410Z,17.30
2019-04-25T08:09:44.296Z,17.30
2019-04-25T08:12:13.303Z,17.30
2019-04-25T08:14:55.766Z,17.30
2019-04-25T08:17:44.065Z,17.30
2019-04-25T08:20:13.663Z,17.30
2019-04-25T08:22:52.937Z,17.40
2019-04-25T08:25:13.803Z,17.40
2019-04-25T08:27:41.567Z,17.40
2019-04-25T08:30:09.732Z,17.40
2019-04-25T08:32:38.027Z,17.50
2019-04-25T08:35:06.098Z,17.50
2019-04-25T08:37:35.615Z,17.60
2019-04-25T08:40:05.531Z,17.60
2019-04-25T08:42:35.449Z,17.70
2019-04-25T08:45:03.794Z,17.70
2019-04-25T08:47:32.645Z,17.70
2019-04-25T08:50:26.896Z,17.50
2019-04-25T08:52:51.388Z,17.70
2019-04-25T08:55:38.286Z,17.80
2019-04-25T08:58:16.404Z,17.80
2019-04-25T09:01:04.126Z,17.80
2019-04-25T09:03:38.713Z,17.90
2019-04-25T09:06:06.882Z,17.90
2019-04-25T09:08:36.946Z,18.00
2019-04-25T09:11:08.087Z,18.00
2019-04-25T09:13:39.559Z,18.00
2019-04-25T09:16:08.050Z,18.00
2019-04-25T09:18:37.009Z,18.10
2019-04-25T09:21:05.331Z,18.00
2019-04-25T09:23:36.216Z,18.10
2019-04-25T09:26:04.023Z,18.10
2019-04-25T09:28:38.043Z,18.10
2019-04-25T09:31:06.970Z,18.00
2019-04-25T09:33:37.789Z,18.00
2019-04-25T09:36:07.015Z,18.00
2019-04-25T09:38:35.998Z,18.00
2019-04-25T09:41:04.671Z,18.00
2019-04-25T09:43:35.825Z,18.00
2019-04-25T09:46:11.114Z,18.00
2019-04-25T09:48:55.821Z,18.00
2019-04-25T09:51:30.274Z,18.00
2019-04-25T09:54:05.036Z,18.00
2019-04-25T09:56:38.219Z,18.10
2019-04-25T09:59:10.991Z,18.10
2019-04-25T10:01:40.155Z,18.10
2019-04-25T10:04:08.279Z,18.20
2019-04-25T10:06:36.537Z,18.20
2019-04-25T10:09:07.633Z,18.20
2019-04-25T10:11:38.207Z,18.30
2019-04-25T10:14:49.549Z,18.30
2019-04-25T10:17:17.727Z,18.30
2019-04-25T10:19:46.000Z,18.30
2019-04-25T10:22:14.584Z,18.30
2019-04-25T10:24:43.016Z,18.30
2019-04-25T10:27:10.934Z,18.30
2019-04-25T10:29:52.766Z,18.40
2019-04-25T10:32:15.083Z,18.40
2019-04-25T10:34:45.197Z,18.40
2019-04-25T10:37:14.822Z,18.40
2019-04-25T10:39:43.782Z,18.40
2019-04-25T10:42:13.622Z,18.50
2019-04-25T10:44:41.787Z,18.50
2019-04-25T10:47:09.915Z,18.50
2019-04-25T10:49:37.716Z,18.60
2019-04-25T10:52:07.211Z,18.60
2019-04-25T10:54:39.716Z,18.60
2019-04-25T10:57:10.595Z,18.60
2019-04-25T10:59:39.008Z,18.60
2019-04-25T11:02:08.547Z,18.60
2019-04-25T11:04:44.561Z,18.70
2019-04-25T11:07:13.651Z,18.70
2019-04-25T11:09:45.542Z,18.70
2019-04-25T11:12:14.255Z,18.80
2019-04-25T11:14:44.311Z,18.80
2019-04-25T11:17:13.238Z,18.80
2019-04-25T11:19:44.415Z,18.80
2019-04-25T11:22:15.609Z,18.80
2019-04-25T11:24:43.772Z,18.90
2019-04-25T11:27:13.421Z,18.90
2019-04-25T11:29:41.621Z,18.90
2019-04-25T11:32:10.765Z,19.00
2019-04-25T11:34:38.726Z,19.10
2019-04-25T11:37:07.171Z,19.10
2019-04-25T11:39:54.930Z,19.20
2019-04-25T11:42:23.528Z,19.20
2019-04-25T11:44:52.710Z,19.20
2019-04-25T11:47:21.199Z,19.20
2019-04-25T11:49:49.928Z,19.30
2019-04-25T11:52:27.348Z,19.30
2019-04-25T11:54:50.400Z,19.30
2019-04-25T11:57:18.370Z,19.30
2019-04-25T11:59:48.872Z,19.30
2019-04-25T12:02:17.439Z,19.40
2019-04-25T12:04:49.548Z,19.60
2019-04-25T12:07:18.797Z,19.40
2019-04-25T12:09:48.332Z,19.40
2019-04-25T12:12:16.786Z,19.50
2019-04-25T12:14:45.492Z,19.50
2019-04-25T12:17:14.648Z,19.50
2019-04-25T12:19:42.679Z,19.60
2019-04-25T12:22:13.401Z,19.60
2019-04-25T12:24:41.529Z,19.60
2019-04-25T12:27:10.113Z,19.70
2019-04-25T12:29:38.901Z,19.70
2019-04-25T12:32:07.593Z,19.80
2019-04-25T12:34:35.679Z,19.80
2019-04-25T12:37:04.069Z,19.70
2019-04-25T12:39:32.101Z,20.00
2019-04-25T12:42:00.988Z,20.00
2019-04-25T12:44:48.873Z,20.10
2019-04-25T12:47:19.922Z,20.10
2019-04-25T12:49:48.662Z,20.20
2019-04-25T12:52:17.010Z,20.30
2019-04-25T12:54:45.210Z,20.40
2019-04-25T12:57:14.178Z,20.50
2019-04-25T12:59:44.990Z,20.50
2019-04-25T13:02:13.351Z,20.50
2019-04-25T13:04:44.867Z,20.60
2019-04-25T13:07:13.727Z,20.60
2019-04-25T13:09:42.962Z,20.60
2019-04-25T13:12:10.729Z,20.70
2019-04-25T13:14:39.131Z,20.70
2019-04-25T13:17:08.697Z,20.80
2019-04-25T13:19:40.895Z,20.50
2019-04-25T13:22:08.769Z,20.90
2019-04-25T13:24:37.051Z,20.90
2019-04-25T13:27:14.212Z,20.90
2019-04-25T13:30:06.563Z,21.00
2019-04-25T13:32:55.396Z,21.00
2019-04-25T13:35:28.164Z,21.00
2019-04-25T13:37:57.521Z,21.10
2019-04-25T13:40:25.863Z,21.10
2019-04-25T13:42:53.837Z,21.10
2019-04-25T13:45:22.557Z,21.20
2019-04-25T13:47:50.599Z,21.20
2019-04-25T13:50:19.266Z,21.20
2019-04-25T13:52:47.238Z,21.20
2019-04-25T13:55:15.205Z,21.20
2019-04-25T13:57:43.463Z,21.20
2019-04-25T14:00:11.958Z,21.20
2019-04-25T14:02:39.837Z,21.10
2019-04-25T14:05:07.780Z,21.10
2019-04-25T14:07:35.910Z,21.10
2019-04-25T14:10:04.525Z,21.10
2019-04-25T14:12:34.052Z,21.00
2019-04-25T14:15:04.178Z,21.00
2019-04-25T14:18:00.795Z,20.90
2019-04-25T14:20:32.682Z,20.90
2019-04-25T14:23:00.831Z,20.90
2019-04-25T14:25:28.633Z,20.80
2019-04-25T14:27:56.523Z,20.80
2019-04-25T14:30:29.560Z,20.80
2019-04-25T14:32:57.481Z,20.80
2019-04-25T14:35:25.170Z,20.70
2019-04-25T14:37:54.012Z,20.70
2019-04-25T14:40:25.718Z,20.70
2019-04-25T14:42:52.811Z,20.70
2019-04-25T14:45:22.408Z,20.70
2019-04-25T14:47:50.200Z,20.60
2019-04-25T14:50:18.213Z,20.60
2019-04-25T14:52:45.881Z,20.60
2019-04-25T14:55:40.623Z,20.50
2019-04-25T14:58:13.200Z,20.50
2019-04-25T15:00:42.288Z,20.50
2019-04-25T15:03:10.560Z,20.50
2019-04-25T15:05:41.082Z,20.50
2019-04-25T15:08:09.151Z,20.50
2019-04-25T15:10:37.224Z,20.40
2019-04-25T15:13:06.369Z,20.50
2019-04-25T15:15:34.423Z,20.40
2019-04-25T15:18:02.367Z,20.40
2019-04-25T15:20:30.309Z,20.40
2019-04-25T15:22:58.062Z,20.40
2019-04-25T15:25:30.367Z,20.40
2019-04-25T15:27:58.966Z,20.30
2019-04-25T15:30:29.602Z,20.30
2019-04-25T15:32:57.773Z,20.30
2019-04-25T15:35:45.903Z,20.20
2019-04-25T15:38:20.024Z,20.20
2019-04-25T15:40:56.068Z,20.20
2019-04-25T15:43:34.305Z,20.10
2019-04-25T15:46:24.062Z,20.10
2019-04-25T15:48:51.905Z,20.10
2019-04-25T15:51:20.093Z,20.00
2019-04-25T15:53:48.782Z,20.00
2019-04-25T15:56:16.367Z,20.00
2019-04-25T15:58:44.146Z,20.00
2019-04-25T16:01:13.075Z,20.00
2019-04-25T16:03:41.067Z,20.00
2019-04-25T16:06:08.839Z,20.00
2019-04-25T16:08:37.524Z,20.00
2019-04-25T16:11:05.600Z,20.00
2019-04-25T16:13:34.351Z,20.00
2019-04-25T16:16:02.382Z,20.00
2019-04-25T16:18:30.644Z,19.90
2019-04-25T16:20:59.956Z,20.20
2019-04-25T16:23:28.837Z,20.00
2019-04-25T16:25:57.233Z,19.90
2019-04-25T16:28:25.083Z,19.90
2019-04-25T16:30:53.864Z,19.90
2019-04-25T16:33:21.755Z,19.90
2019-04-25T16:35:49.675Z,19.90
2019-04-25T16:38:17.987Z,19.90
2019-04-25T16:40:45.853Z,19.90
2019-04-25T16:43:17.740Z,19.90
2019-04-25T16:45:45.454Z,19.90
2019-04-25T16:48:13.874Z,19.90
2019-04-25T16:50:42.091Z,19.90
2019-04-25T16:53:11.040Z,19.90
2019-04-25T16:55:38.998Z,19.90
2019-04-25T16:58:07.113Z,19.80
2019-04-25T17:00:49.125Z,19.80
2019-04-25T17:03:23.902Z,19.80
2019-04-25T17:05:51.475Z,19.80
2019-04-25T17:08:19.555Z,19.70
2019-04-25T17:10:47.720Z,19.70
2019-04-25T17:13:15.319Z,19.70
2019-04-25T17:16:09.129Z,19.70
2019-04-25T17:18:45.237Z,19.60
2019-04-25T17:21:13.041Z,19.60
2019-04-25T17:23:41.823Z,19.60
2019-04-25T17:26:09.869Z,19.60
2019-04-25T17:28:41.115Z,19.50
2019-04-25T17:31:22.350Z,19.50
2019-04-25T17:34:00.871Z,19.40
2019-04-25T17:36:41.466Z,19.40
2019-04-25T17:39:33.469Z,19.40
2019-04-25T17:42:01.638Z,19.40
2019-04-25T17:44:29.697Z,19.40
2019-04-25T17:47:06.237Z,19.40
2019-04-25T17:49:30.367Z,19.30
2019-04-25T17:51:58.406Z,19.30
2019-04-25T17:54:25.950Z,19.30
2019-04-25T17:56:54.224Z,19.30
2019-04-25T17:59:22.725Z,19.20
2019-04-25T18:01:52.354Z,19.20
2019-04-25T18:04:20.198Z,19.20
2019-04-25T18:06:47.866Z,19.20
2019-04-25T18:09:15.424Z,19.20
2019-04-25T18:11:43.486Z,19.20
2019-04-25T18:14:17.625Z,19.10
2019-04-25T18:16:47.010Z,19.10
2019-04-25T18:19:38.438Z,19.10
2019-04-25T18:22:17.037Z,19.00
2019-04-25T18:25:01.028Z,19.00
2019-04-25T18:27:32.780Z,18.90
2019-04-25T18:30:00.763Z,18.90
2019-04-25T18:32:32.632Z,18.90
2019-04-25T18:35:19.802Z,18.90
2019-04-25T18:37:57.930Z,18.90
2019-04-25T18:40:54.389Z,18.80
2019-04-25T18:43:29.007Z,18.80
2019-04-25T18:46:00.910Z,18.80
2019-04-25T18:48:29.495Z,18.70
2019-04-25T18:50:57.531Z,18.60
2019-04-25T18:53:45.288Z,18.50
2019-04-25T18:56:47.494Z,18.50
2019-04-25T18:59:33.258Z,18.40
2019-04-25T19:02:23.227Z,18.40
2019-04-25T19:05:13.578Z,18.30
2019-04-25T19:07:43.023Z,18.30
2019-04-25T19:10:12.512Z,18.20
2019-04-25T19:12:41.191Z,18.20
2019-04-25T19:15:09.577Z,18.20
2019-04-25T19:17:37.280Z,18.10
2019-04-25T19:20:06.585Z,18.20
2019-04-25T19:22:34.469Z,18.20
2019-04-25T19:25:02.207Z,18.10
2019-04-25T19:27:29.919Z,18.10
2019-04-25T19:29:57.284Z,18.10
2019-04-25T19:32:26.254Z,18.10
2019-04-25T19:34:53.879Z,18.10
2019-04-25T19:37:21.557Z,18.10
2019-04-25T19:40:09.411Z,18.10
2019-04-25T19:42:41.143Z,18.10
2019-04-25T19:45:09.310Z,18.10
2019-04-25T19:47:41.365Z,18.10
2019-04-25T19:50:09.867Z,18.10
2019-04-25T19:52:37.681Z,18.10
2019-04-25T19:55:05.395Z,18.10
2019-04-25T19:57:33.260Z,18.10
2019-04-25T20:00:00.712Z,18.10
2019-04-25T20:02:56.973Z,18.10
2019-04-25T20:05:41.877Z,18.10
2019-04-25T20:08:34.656Z,18.10
2019-04-25T20:11:07.330Z,18.10
2019-04-25T20:13:34.933Z,18.10
2019-04-25T20:16:02.555Z,18.00
2019-04-25T20:18:30.073Z,18.00
2019-04-25T20:20:57.501Z,18.10
2019-04-25T20:23:25.333Z,18.00
2019-04-25T20:25:53.116Z,18.00
2019-04-25T20:28:22.371Z,18.00
2019-04-25T20:30:50.564Z,18.00
2019-04-25T20:33:18.261Z,18.00
2019-04-25T20:35:47.452Z,18.00
2019-04-25T20:38:15.066Z,18.00
2019-04-25T20:40:42.849Z,18.00
2019-04-25T20:43:10.341Z,18.00
2019-04-25T20:45:38.329Z,18.00
2019-04-25T20:48:05.856Z,18.00
2019-04-25T20:50:34.028Z,18.00
2019-04-25T20:53:01.869Z,17.90
2019-04-25T20:55:29.517Z,17.90
2019-04-25T20:57:57.880Z,17.90
2019-04-25T21:00:40.105Z,17.90
2019-04-25T21:03:08.585Z,17.90
2019-04-25T21:05:36.075Z,17.90
2019-04-25T21:08:03.989Z,17.90
2019-04-25T21:10:31.499Z,17.80
2019-04-25T21:12:59.778Z,17.90
2019-04-25T21:15:46.385Z,17.80
2019-04-25T21:18:45.896Z,17.80
2019-04-25T21:21:13.767Z,17.80
2019-04-25T21:23:41.426Z,17.80
2019-04-25T21:26:09.606Z,17.80
2019-04-25T21:28:37.527Z,17.80
2019-04-25T21:31:05.085Z,17.70
2019-04-25T21:33:32.681Z,17.70
2019-04-25T21:36:01.556Z,17.70
2019-04-25T21:38:29.308Z,17.70
2019-04-25T21:41:03.598Z,17.70
2019-04-25T21:43:34.812Z,17.70
2019-04-25T21:46:03.020Z,17.70
2019-04-25T21:48:30.624Z,17.70
2019-04-25T21:51:01.215Z,17.70
2019-04-25T21:53:28.566Z,17.70
2019-04-25T21:55:56.225Z,17.60
2019-04-25T21:58:25.074Z,17.60
2019-04-25T22:01:22.011Z,17.60
2019-04-25T22:03:49.411Z,17.60
2019-04-25T22:06:17.922Z,17.60
2019-04-25T22:08:45.425Z,17.60
2019-04-25T22:11:12.888Z,17.60
2019-04-25T22:13:40.918Z,17.60
2019-04-25T22:16:08.924Z,17.50
2019-04-25T22:18:36.998Z,17.60
2019-04-25T22:21:05.225Z,17.50
2019-04-25T22:23:33.230Z,17.50
2019-04-25T22:26:01.270Z,17.50
2019-04-25T22:28:29.256Z,17.50
2019-04-25T22:30:59.450Z,17.40
2019-04-25T22:33:47.038Z,17.40
2019-04-25T22:36:17.171Z,17.40
2019-04-25T22:38:46.898Z,17.40
2019-04-25T22:41:14.751Z,17.40
2019-04-25T22:43:47.180Z,17.40
2019-04-25T22:46:25.483Z,17.40
2019-04-25T22:48:49.798Z,17.40
2019-04-25T22:51:17.798Z,17.30
2019-04-25T22:53:45.545Z,17.40
2019-04-25T22:56:13.634Z,17.40
2019-04-25T22:58:41.665Z,17.40
2019-04-25T23:01:21.260Z,17.30
2019-04-25T23:03:50.761Z,17.40
2019-04-25T23:06:19.320Z,17.30
2019-04-25T23:08:47.127Z,17.40
2019-04-25T23:11:15.752Z,17.30
2019-04-25T23:13:43.848Z,17.30
2019-04-25T23:16:13.192Z,17.30
2019-04-25T23:18:41.190Z,17.30
2019-04-25T23:21:10.428Z,17.30
2019-04-25T23:23:38.051Z,17.30
2019-04-25T23:26:32.011Z,17.30
2019-04-25T23:29:01.010Z,17.30
2019-04-25T23:31:47.256Z,17.30
2019-04-25T23:34:15.313Z,17.30
2019-04-25T23:36:43.326Z,17.30
2019-04-25T23:39:11.555Z,17.30
2019-04-25T23:41:39.343Z,17.20
2019-04-25T23:44:07.898Z,17.20
2019-04-25T23:46:35.857Z,17.20
2019-04-25T23:49:04.174Z,17.20
2019-04-25T23:51:31.920Z,17.20
2019-04-25T23:53:59.792Z,17.20
2019-04-25T23:56:27.779Z,17.20
2019-04-25T23:58:55.803Z,17.20
